| time (UTC) | temp F | wind direction | speed MPH | gust MPH | rain 1hr in | rain 24hr in | rain mn in | humidity % | barometer mb |
| 20260502214938 | 75 | 160 | 13.0 | 24.0 | 0.00 | 0.00 | 0.00 | 8 | 1014.4 |
| 20260502214525 | 75 | 152 | 13.0 | 28.0 | 0.00 | 0.00 | 0.00 | 8 | 1014.4 |
| 20260502214438 | 75 | 152 | 13.0 | 28.0 | 0.00 | 0.00 | 0.00 | 8 | 1014.4 |
| 20260502213936 | 75 | 165 | 23.0 | 30.0 | 0.00 | 0.00 | 0.00 | 7 | 1014.5 |
| 20260502213436 | 75 | 155 | 16.0 | 25.0 | 0.00 | 0.00 | 0.00 | 6 | 1014.8 |
| 20260502212935 | 74 | 170 | 14.0 | 23.0 | 0.00 | 0.00 | 0.00 | 7 | 1014.8 |
| 20260502212435 | 75 | 165 | 12.0 | 17.0 | 0.00 | 0.00 | 0.00 | 7 | 1014.9 |
| 20260502211934 | 75 | 205 | 11.0 | 18.0 | 0.00 | 0.00 | 0.00 | 6 | 1015.0 |
| 20260502211434 | 75 | 124 | 9.0 | 23.0 | 0.00 | 0.00 | 0.00 | 6 | 1015.2 |
| 20260502210933 | 75 | 193 | 14.0 | 23.0 | 0.00 | 0.00 | 0.00 | 6 | 1015.1 |
| 20260502210433 | 75 | 170 | 18.0 | 21.0 | 0.00 | 0.00 | 0.00 | 6 | 1015.2 |
| 20260502205932 | 75 | 184 | 6.0 | 17.0 | 0.00 | 0.00 | 0.00 | 6 | 1015.3 |
| 20260502205430 | 76 | 184 | 8.0 | 17.0 | 0.00 | 0.00 | 0.00 | 7 | 1015.3 |
| 20260502204929 | 75 | 180 | 11.0 | 17.0 | 0.00 | 0.00 | 0.00 | 7 | 1015.3 |
| 20260502204429 | 74 | 252 | 5.0 | 10.0 | 0.00 | 0.00 | 0.00 | 7 | 1015.5 |
| 20260502203928 | 74 | 194 | 7.0 | 16.0 | 0.00 | 0.00 | 0.00 | 7 | 1015.7 |
| 20260502203428 | 74 | 183 | 11.0 | 16.0 | 0.00 | 0.00 | 0.00 | 7 | 1015.8 |
| 20260502202927 | 73 | 177 | 14.0 | 19.0 | 0.00 | 0.00 | 0.00 | 7 | 1015.8 |
| 20260502202426 | 73 | 170 | 9.0 | 15.0 | 0.00 | 0.00 | 0.00 | 8 | 1015.8 |
| 20260502201926 | 74 | 184 | 9.0 | 14.0 | 0.00 | 0.00 | 0.00 | 8 | 1016.0 |
| 20260502201425 | 73 | 156 | 11.0 | 13.0 | 0.00 | 0.00 | 0.00 | 7 | 1016.0 |
| 20260502200925 | 73 | 100 | 7.0 | 18.0 | 0.00 | 0.00 | 0.00 | 7 | 1016.0 |
| 20260502200502 | 74 | 170 | 14.0 | 22.0 | 0.00 | 0.00 | 0.00 | 7 | 1016.0 |
| 20260502200424 | 74 | 170 | 14.0 | 22.0 | 0.00 | 0.00 | 0.00 | 7 | 1016.0 |
| 20260502195924 | 73 | 167 | 8.0 | 24.0 | 0.00 | 0.00 | 0.00 | 7 | 1016.2 |
| 20260502195423 | 74 | 187 | 14.0 | 18.0 | 0.00 | 0.00 | 0.00 | 7 | 1016.2 |
| 20260502194923 | 73 | 181 | 9.0 | 16.0 | 0.00 | 0.00 | 0.00 | 7 | 1016.2 |
| 20260502194423 | 74 | 115 | 8.0 | 18.0 | 0.00 | 0.00 | 0.00 | 6 | 1016.4 |
| 20260502193922 | 74 | 167 | 7.0 | 17.0 | 0.00 | 0.00 | 0.00 | 7 | 1016.5 |
| 20260502193421 | 73 | 195 | 13.0 | 18.0 | 0.00 | 0.00 | 0.00 | 6 | 1016.5 |
| 20260502192921 | 74 | 172 | 11.0 | 18.0 | 0.00 | 0.00 | 0.00 | 6 | 1016.6 |
| 20260502192420 | 74 | 193 | 10.0 | 20.0 | 0.00 | 0.00 | 0.00 | 7 | 1016.6 |
| 20260502191920 | 74 | 208 | 10.0 | 21.0 | 0.00 | 0.00 | 0.00 | 8 | 1016.6 |
| 20260502191419 | 74 | 100 | 14.0 | 18.0 | 0.00 | 0.00 | 0.00 | 9 | 1016.6 |
| 20260502190919 | 73 | 156 | 9.0 | 19.0 | 0.00 | 0.00 | 0.00 | 7 | 1016.9 |
| 20260502190418 | 73 | 135 | 11.0 | 21.0 | 0.00 | 0.00 | 0.00 | 9 | 1016.7 |
| 20260502185918 | 72 | 176 | 15.0 | 25.0 | 0.00 | 0.00 | 0.00 | 9 | 1016.9 |
| 20260502185417 | 72 | 170 | 10.0 | 16.0 | 0.00 | 0.00 | 0.00 | 9 | 1017.0 |
| 20260502184917 | 72 | 138 | 14.0 | 19.0 | 0.00 | 0.00 | 0.00 | 8 | 1017.1 |
| 20260502184418 | 71 | 174 | 12.0 | 20.0 | 0.00 | 0.00 | 0.00 | 8 | 1017.2 |
| 20260502183916 | 72 | 165 | 14.0 | 20.0 | 0.00 | 0.00 | 0.00 | 8 | 1017.2 |
| 20260502183415 | 72 | 155 | 10.0 | 26.0 | 0.00 | 0.00 | 0.00 | 10 | 1017.3 |
| 20260502182915 | 71 | 173 | 12.0 | 21.0 | 0.00 | 0.00 | 0.00 | 9 | 1017.4 |
| 20260502182414 | 71 | 141 | 17.0 | 22.0 | 0.00 | 0.00 | 0.00 | 9 | 1017.4 |
| 20260502181914 | 72 | 143 | 13.0 | 22.0 | 0.00 | 0.00 | 0.00 | 10 | 1017.5 |
| 20260502181509 | 71 | 166 | 14.0 | 20.0 | 0.00 | 0.00 | 0.00 | 11 | 1017.5 |
| 20260502181413 | 71 | 166 | 14.0 | 20.0 | 0.00 | 0.00 | 0.00 | 11 | 1017.5 |
| 20260502180913 | 71 | 159 | 15.0 | 20.0 | 0.00 | 0.00 | 0.00 | 11 | 1017.7 |
| 20260502180412 | 71 | 139 | 17.0 | 22.0 | 0.00 | 0.00 | 0.00 | 11 | 1017.7 |
| 20260502170402 | 67 | 55 | 3.0 | 8.0 | 0.00 | 0.00 | 0.00 | 28 | 1018.4 |
| 20260502163859 | 64 | 96 | 5.0 | 9.0 | 0.00 | 0.00 | 0.00 | 38 | 1018.6 |
| 20260502163358 | 62 | 72 | 6.0 | 10.0 | 0.00 | 0.00 | 0.00 | 38 | 1018.6 |
| 20260502162857 | 61 | 56 | 8.0 | 10.0 | 0.00 | 0.00 | 0.00 | 39 | 1018.6 |
| 20260502162357 | 61 | 62 | 9.0 | 10.0 | 0.00 | 0.00 | 0.00 | 39 | 1018.6 |
| 20260502161856 | 59 | 32 | 9.0 | 11.0 | 0.00 | 0.00 | 0.00 | 40 | 1018.6 |
| 20260502161355 | 59 | 69 | 11.0 | 12.0 | 0.00 | 0.00 | 0.00 | 40 | 1018.6 |
| 20260502160854 | 58 | 46 | 9.0 | 10.0 | 0.00 | 0.00 | 0.00 | 42 | 1018.5 |
| 20260502160354 | 58 | 65 | 9.0 | 11.0 | 0.00 | 0.00 | 0.00 | 46 | 1018.7 |
| 20260502151849 | 51 | 52 | 4.0 | 12.0 | 0.00 | 0.00 | 0.00 | 55 | 1018.9 |
| 20260502151349 | 50 | 58 | 9.0 | 10.0 | 0.00 | 0.00 | 0.00 | 60 | 1018.8 |
| 20260502150848 | 50 | 91 | 5.0 | 10.0 | 0.00 | 0.00 | 0.00 | 59 | 1018.9 |
| 20260502150348 | 49 | 62 | 9.0 | 7.0 | 0.00 | 0.00 | 0.00 | 57 | 1018.8 |
| 20260502130326 | 38 | 110 | 5.0 | 7.0 | 0.00 | 0.00 | 0.00 | 63 | 1018.7 |
| 20260502123323 | 38 | 129 | 3.0 | 5.0 | 0.00 | 0.00 | 0.00 | 73 | 1018.6 |
| 20260502122822 | 37 | 142 | 4.0 | 5.0 | 0.00 | 0.00 | 0.00 | 76 | 1018.6 |
| 20260502122322 | 38 | 114 | 3.0 | 5.0 | 0.00 | 0.00 | 0.00 | 75 | 1018.7 |
| 20260502121821 | 39 | 162 | 4.0 | 7.0 | 0.00 | 0.00 | 0.00 | 72 | 1018.6 |
| 20260502121321 | 39 | 115 | 4.0 | 7.0 | 0.00 | 0.00 | 0.00 | 72 | 1018.7 |
| 20260502120820 | 39 | 90 | 7.0 | 8.0 | 0.00 | 0.00 | 0.00 | 74 | 1018.7 |
| 20260502120320 | 38 | 103 | 7.0 | 6.0 | 0.00 | 0.00 | 0.00 | 73 | 1018.7 |
| 20260502115819 | 40 | 100 | 6.0 | 5.0 | 0.00 | 0.00 | 0.00 | 68 | 1018.7 |
| 20260502115319 | 42 | 69 | 4.0 | 0.0 | 0.00 | 0.00 | 0.00 | 65 | 1018.7 |
| 20260502114818 | 42 | 98 | 0.0 | 1.0 | 0.00 | 0.00 | 0.00 | 65 | 1018.7 |
| 20260502114318 | 42 | 98 | 0.0 | 5.0 | 0.00 | 0.00 | 0.00 | 64 | 1018.7 |
| 20260502114009 | 42 | 135 | 3.0 | 8.0 | 0.00 | 0.00 | 0.00 | 61 | 1018.7 |
| 20260502113817 | 42 | 98 | 3.0 | 6.0 | 0.00 | 0.00 | 0.00 | 63 | 1018.7 |
| 20260502113317 | 42 | 135 | 3.0 | 8.0 | 0.00 | 0.00 | 0.00 | 61 | 1018.7 |
| 20260502112816 | 41 | 166 | 5.0 | 6.0 | 0.00 | 0.00 | 0.00 | 65 | 1018.6 |
| 20260502112316 | 42 | 108 | 5.0 | 6.0 | 0.00 | 0.00 | 0.00 | 62 | 1018.6 |
| 20260502111815 | 42 | 158 | 3.0 | 8.0 | 0.00 | 0.00 | 0.00 | 61 | 1018.6 |
| 20260502111315 | 42 | 159 | 7.0 | 6.0 | 0.00 | 0.00 | 0.00 | 63 | 1018.7 |
| 20260502110814 | 42 | 108 | 4.0 | 8.0 | 0.00 | 0.00 | 0.00 | 63 | 1018.7 |
| 20260502110314 | 43 | 63 | 3.0 | 6.0 | 0.00 | 0.00 | 0.00 | 60 | 1018.7 |
| 20260502105813 | 43 | 80 | 3.0 | 4.0 | 0.00 | 0.00 | 0.00 | 63 | 1018.6 |
| 20260502105313 | 44 | 44 | 3.0 | 3.0 | 0.00 | 0.00 | 0.00 | 59 | 1018.6 |
| 20260502104812 | 45 | 87 | 2.0 | 3.0 | 0.00 | 0.00 | 0.00 | 58 | 1018.7 |
| 20260502104312 | 46 | 18 | 0.0 | 3.0 | 0.00 | 0.00 | 0.00 | 53 | 1018.6 |
| 20260502103811 | 45 | 319 | 3.0 | 3.0 | 0.00 | 0.00 | 0.00 | 53 | 1018.6 |
| 20260502103311 | 44 | 274 | 1.0 | 4.0 | 0.00 | 0.00 | 0.00 | 57 | 1018.7 |
| 20260502102810 | 45 | 101 | 3.0 | 4.0 | 0.00 | 0.00 | 0.00 | 54 | 1018.6 |
| 20260502102310 | 45 | 191 | 2.0 | 7.0 | 0.00 | 0.00 | 0.00 | 53 | 1018.5 |
| 20260502101809 | 44 | 155 | 2.0 | 7.0 | 0.00 | 0.00 | 0.00 | 54 | 1018.5 |
| 20260502101309 | 44 | 173 | 3.0 | 6.0 | 0.00 | 0.00 | 0.00 | 54 | 1018.5 |
| 20260502100808 | 43 | 298 | 5.0 | 6.0 | 0.00 | 0.00 | 0.00 | 56 | 1018.5 |
| 20260502100307 | 44 | 270 | 5.0 | 5.0 | 0.00 | 0.00 | 0.00 | 54 | 1018.5 |
| 20260502091302 | 47 | 172 | 2.0 | 6.0 | 0.00 | 0.00 | 0.00 | 50 | 1018.4 |
| 20260502090802 | 47 | 62 | 4.0 | 6.0 | 0.00 | 0.00 | 0.00 | 46 | 1018.4 |
| 20260502090301 | 46 | 59 | 3.0 | 6.0 | 0.00 | 0.00 | 0.00 | 52 | 1018.5 |
| 20260502071249 | 46 | 97 | 3.0 | 4.0 | 0.00 | 0.00 | 0.00 | 48 | 1018.9 |
| 20260502070748 | 46 | 103 | 3.0 | 5.0 | 0.00 | 0.00 | 0.00 | 49 | 1018.9 |
| 20260502070247 | 47 | 70 | 3.0 | 6.0 | 0.00 | 0.00 | 0.00 | 50 | 1018.8 |
| 20260502065746 | 48 | 203 | 2.0 | 4.0 | 0.00 | 0.00 | 0.00 | 49 | 1018.9 |
| 20260502065246 | 49 | 72 | 2.0 | 8.0 | 0.00 | 0.00 | 0.00 | 47 | 1018.8 |
| 20260502064745 | 49 | 143 | 5.0 | 9.0 | 0.00 | 0.00 | 0.00 | 46 | 1018.8 |
| 20260502064245 | 49 | 136 | 8.0 | 8.0 | 0.00 | 0.00 | 0.00 | 43 | 1018.7 |
| 20260502063744 | 49 | 139 | 7.0 | 7.0 | 0.00 | 0.00 | 0.00 | 45 | 1018.8 |
| 20260502063244 | 49 | 145 | 7.0 | 6.0 | 0.00 | 0.00 | 0.00 | 42 | 1018.7 |
| 20260502062743 | 49 | 150 | 2.0 | 6.0 | 0.00 | 0.00 | 0.00 | 45 | 1018.7 |
| 20260502062243 | 51 | 177 | 1.0 | 3.0 | 0.00 | 0.00 | 0.00 | 42 | 1018.8 |
| 20260502061742 | 51 | 89 | 2.0 | 5.0 | 0.00 | 0.00 | 0.00 | 42 | 1018.8 |
| 20260502061242 | 49 | 158 | 2.0 | 7.0 | 0.00 | 0.00 | 0.00 | 42 | 1018.7 |
| 20260502060741 | 48 | 218 | 6.0 | 7.0 | 0.00 | 0.00 | 0.00 | 45 | 1018.8 |
| 20260502060241 | 48 | 163 | 4.0 | 8.0 | 0.00 | 0.00 | 0.00 | 47 | 1018.8 |
| 20260502055740 | 48 | 194 | 7.0 | 11.0 | 0.00 | 0.00 | 0.00 | 46 | 1018.8 |
| 20260502055240 | 48 | 183 | 6.0 | 9.0 | 0.00 | 0.00 | 0.00 | 48 | 1018.9 |
| 20260502054739 | 49 | 162 | 8.0 | 10.0 | 0.00 | 0.00 | 0.00 | 47 | 1018.8 |
| 20260502054239 | 49 | 195 | 7.0 | 6.0 | 0.00 | 0.00 | 0.00 | 45 | 1018.8 |
| 20260502053738 | 49 | 200 | 3.0 | 7.0 | 0.00 | 0.00 | 0.00 | 44 | 1018.8 |
| 20260502053238 | 50 | 183 | 5.0 | 7.0 | 0.00 | 0.00 | 0.00 | 42 | 1018.8 |
| 20260502052737 | 50 | 214 | 3.0 | 7.0 | 0.00 | 0.00 | 0.00 | 41 | 1018.8 |
| 20260502052237 | 50 | 191 | 4.0 | 8.0 | 0.00 | 0.00 | 0.00 | 43 | 1018.8 |
| 20260502051736 | 50 | 205 | 4.0 | 6.0 | 0.00 | 0.00 | 0.00 | 42 | 1018.8 |
| 20260502051236 | 50 | 162 | 4.0 | 4.0 | 0.00 | 0.00 | 0.00 | 44 | 1018.8 |
| 20260502050735 | 50 | 155 | 3.0 | 7.0 | 0.00 | 0.00 | 0.00 | 45 | 1018.8 |
| 20260502050235 | 50 | 160 | 5.0 | 5.0 | 0.00 | 0.00 | 0.00 | 42 | 1018.8 |
| 20260502045734 | 49 | 180 | 4.0 | 6.0 | 0.00 | 0.00 | 0.00 | 46 | 1018.8 |
| 20260502045234 | 50 | 188 | 4.0 | 5.0 | 0.00 | 0.00 | 0.00 | 43 | 1018.8 |
| 20260502044733 | 52 | 179 | 4.0 | 6.0 | 0.00 | 0.00 | 0.00 | 39 | 1018.8 |
| 20260502044232 | 53 | 195 | 5.0 | 6.0 | 0.00 | 0.00 | 0.00 | 37 | 1018.8 |
| 20260502043730 | 52 | 197 | 5.0 | 7.0 | 0.00 | 0.00 | 0.00 | 36 | 1018.8 |
| 20260502043229 | 50 | 198 | 5.0 | 6.0 | 0.00 | 0.00 | 0.00 | 40 | 1018.8 |
| 20260502042729 | 49 | 191 | 3.0 | 6.0 | 0.00 | 0.00 | 0.00 | 42 | 1018.7 |
| 20260502042228 | 49 | 193 | 4.0 | 4.0 | 0.00 | 0.00 | 0.00 | 43 | 1018.7 |
| 20260502041728 | 50 | 187 | 4.0 | 3.0 | 0.00 | 0.00 | 0.00 | 43 | 1018.7 |
| 20260502041228 | 51 | 166 | 2.0 | 4.0 | 0.00 | 0.00 | 0.00 | 40 | 1018.6 |
| 20260502040727 | 51 | 179 | 3.0 | 4.0 | 0.00 | 0.00 | 0.00 | 40 | 1018.6 |
| 20260502040226 | 51 | 184 | 4.0 | 4.0 | 0.00 | 0.00 | 0.00 | 37 | 1018.6 |
| 20260502035726 | 52 | 180 | 3.0 | 5.0 | 0.00 | 0.00 | 0.00 | 37 | 1018.6 |
| 20260502035307 | 52 | 198 | 4.0 | 4.0 | 0.00 | 0.00 | 0.00 | 36 | 1018.6 |
| 20260502035224 | 52 | 198 | 4.0 | 4.0 | 0.00 | 0.00 | 0.00 | 36 | 1018.6 |
| 20260502034724 | 52 | 200 | 3.0 | 3.0 | 0.00 | 0.00 | 0.00 | 37 | 1018.5 |
| 20260502034223 | 52 | 170 | 2.0 | 2.0 | 0.00 | 0.00 | 0.00 | 37 | 1018.5 |
| 20260502033723 | 52 | 131 | 0.0 | 0.0 | 0.00 | 0.00 | 0.00 | 38 | 1018.4 |
| 20260502033222 | 53 | 131 | 0.0 | 0.0 | 0.00 | 0.00 | 0.00 | 40 | 1018.4 |
| 20260502032722 | 53 | 131 | 0.0 | 1.0 | 0.00 | 0.00 | 0.00 | 43 | 1018.2 |
| 20260502032221 | 54 | 139 | 1.0 | 2.0 | 0.00 | 0.00 | 0.00 | 40 | 1018.2 |
| 20260502031220 | 55 | 149 | 3.0 | 5.0 | 0.00 | 0.00 | 0.00 | 37 | 1018.0 |
| 20260502030720 | 55 | 153 | 4.0 | 5.0 | 0.00 | 0.00 | 0.00 | 39 | 1018.0 |
| 20260502030219 | 56 | 127 | 5.0 | 6.0 | 0.00 | 0.00 | 0.00 | 36 | 1017.9 |
| 20260502025719 | 58 | 107 | 5.0 | 7.0 | 0.00 | 0.00 | 0.00 | 37 | 1017.9 |
| 20260502025218 | 61 | 77 | 6.0 | 8.0 | 0.00 | 0.00 | 0.00 | 28 | 1017.8 |
| 20260502024718 | 61 | 82 | 7.0 | 7.0 | 0.00 | 0.00 | 0.00 | 26 | 1017.8 |
| 20260502024215 | 62 | 90 | 6.0 | 7.0 | 0.00 | 0.00 | 0.00 | 25 | 1017.8 |
| 20260502023715 | 63 | 91 | 6.0 | 6.0 | 0.00 | 0.00 | 0.00 | 27 | 1017.8 |
| 20260502023214 | 64 | 90 | 5.0 | 7.0 | 0.00 | 0.00 | 0.00 | 23 | 1017.8 |
| 20260502022714 | 65 | 73 | 6.0 | 7.0 | 0.00 | 0.00 | 0.00 | 19 | 1017.8 |
| 20260502022213 | 65 | 66 | 5.0 | 5.0 | 0.00 | 0.00 | 0.00 | 18 | 1017.8 |
| 20260502021713 | 65 | 73 | 4.0 | 6.0 | 0.00 | 0.00 | 0.00 | 18 | 1017.8 |
| 20260502021212 | 65 | 68 | 5.0 | 6.0 | 0.00 | 0.00 | 0.00 | 18 | 1017.8 |
| 20260502020711 | 66 | 53 | 4.0 | 5.0 | 0.00 | 0.00 | 0.00 | 18 | 1017.8 |
| 20260502020211 | 66 | 66 | 5.0 | 5.0 | 0.00 | 0.00 | 0.00 | 19 | 1017.8 |
| 20260502015711 | 66 | 63 | 5.0 | 6.0 | 0.00 | 0.00 | 0.00 | 20 | 1017.8 |
| 20260502015210 | 66 | 69 | 5.0 | 8.0 | 0.00 | 0.00 | 0.00 | 21 | 1017.8 |
| 20260502014709 | 65 | 79 | 7.0 | 8.0 | 0.00 | 0.00 | 0.00 | 23 | 1017.8 |
| 20260502014209 | 66 | 97 | 7.0 | 8.0 | 0.00 | 0.00 | 0.00 | 19 | 1017.9 |
| 20260502013708 | 66 | 87 | 6.0 | 8.0 | 0.00 | 0.00 | 0.00 | 20 | 1017.9 |
| 20260502013208 | 67 | 80 | 7.0 | 8.0 | 0.00 | 0.00 | 0.00 | 17 | 1018.0 |
| 20260502012707 | 67 | 48 | 5.0 | 8.0 | 0.00 | 0.00 | 0.00 | 17 | 1017.9 |
| 20260502012207 | 67 | 18 | 5.0 | 9.0 | 0.00 | 0.00 | 0.00 | 15 | 1017.9 |
| 20260502011706 | 67 | 28 | 6.0 | 8.0 | 0.00 | 0.00 | 0.00 | 15 | 1018.0 |
| 20260502011206 | 68 | 10 | 4.0 | 9.0 | 0.00 | 0.00 | 0.00 | 14 | 1018.0 |
| 20260502010703 | 67 | 20 | 7.0 | 9.0 | 0.00 | 0.00 | 0.00 | 14 | 1018.0 |
| 20260502010203 | 67 | 23 | 4.0 | 11.0 | 0.00 | 0.00 | 0.00 | 16 | 1018.1 |
| 20260502005704 | 67 | 39 | 6.0 | 11.0 | 0.00 | 0.00 | 0.00 | 17 | 1018.1 |
| 20260502005202 | 68 | 73 | 7.0 | 9.0 | 0.00 | 0.00 | 0.00 | 16 | 1018.1 |
| 20260502004701 | 68 | 84 | 6.0 | 12.0 | 0.00 | 0.00 | 0.00 | 15 | 1018.1 |
| 20260502004201 | 67 | 15 | 9.0 | 7.0 | 0.00 | 0.00 | 0.00 | 14 | 1018.1 |
| 20260502003700 | 67 | 77 | 5.0 | 9.0 | 0.00 | 0.00 | 0.00 | 14 | 1018.1 |
| 20260502003200 | 66 | 63 | 7.0 | 10.0 | 0.00 | 0.00 | 0.00 | 15 | 1018.1 |
| 20260502002658 | 67 | 55 | 8.0 | 11.0 | 0.00 | 0.00 | 0.00 | 16 | 1018.2 |
| 20260502002158 | 67 | 46 | 9.0 | 11.0 | 0.00 | 0.00 | 0.00 | 16 | 1018.4 |
| 20260502001657 | 67 | 53 | 7.0 | 10.0 | 0.00 | 0.00 | 0.00 | 16 | 1018.4 |
| 20260502001157 | 67 | 28 | 5.0 | 13.0 | 0.00 | 0.00 | 0.00 | 16 | 1018.4 |
| 20260502000656 | 67 | 21 | 10.0 | 10.0 | 0.00 | 0.00 | 0.00 | 16 | 1018.5 |
| 20260502000230 | 68 | 65 | 6.0 | 10.0 | 0.00 | 0.00 | 0.00 | 14 | 1018.5 |
| 20260502000155 | 68 | 65 | 6.0 | 10.0 | 0.00 | 0.00 | 0.00 | 14 | 1018.5 |
| 20260501235655 | 67 | 25 | 6.0 | 10.0 | 0.00 | 0.00 | 0.00 | 16 | 1018.5 |
| 20260501235154 | 67 | 56 | 8.0 | 10.0 | 0.00 | 0.00 | 0.00 | 15 | 1018.5 |
| 20260501234654 | 67 | 48 | 7.0 | 12.0 | 0.00 | 0.00 | 0.00 | 16 | 1018.6 |
| 20260501234152 | 67 | 32 | 10.0 | 11.0 | 0.00 | 0.00 | 0.00 | 15 | 1018.6 |
| 20260501233652 | 67 | 30 | 9.0 | 9.0 | 0.00 | 0.00 | 0.00 | 15 | 1018.6 |
| 20260501233151 | 67 | 39 | 6.0 | 9.0 | 0.00 | 0.00 | 0.00 | 15 | 1018.7 |
| 20260501232651 | 67 | 8 | 6.0 | 14.0 | 0.00 | 0.00 | 0.00 | 16 | 1018.7 |
| 20260501232150 | 67 | 6 | 3.0 | 12.0 | 0.00 | 0.00 | 0.00 | 16 | 1018.6 |
| 20260501231650 | 68 | 11 | 9.0 | 11.0 | 0.00 | 0.00 | 0.00 | 16 | 1018.7 |
| 20260501231149 | 67 | 86 | 8.0 | 8.0 | 0.00 | 0.00 | 0.00 | 16 | 1018.7 |
| 20260501230649 | 68 | 316 | 5.0 | 13.0 | 0.00 | 0.00 | 0.00 | 16 | 1018.8 |
| 20260501230148 | 67 | 345 | 8.0 | 10.0 | 0.00 | 0.00 | 0.00 | 15 | 1018.8 |
| 20260501225648 | 67 | 21 | 5.0 | 13.0 | 0.00 | 0.00 | 0.00 | 14 | 1018.9 |
| 20260501225147 | 67 | 37 | 5.0 | 9.0 | 0.00 | 0.00 | 0.00 | 16 | 1019.0 |
| 20260501224647 | 66 | 3 | 7.0 | 13.0 | 0.00 | 0.00 | 0.00 | 17 | 1019.2 |
| 20260501224145 | 66 | 32 | 11.0 | 14.0 | 0.00 | 0.00 | 0.00 | 17 | 1019.0 |
| 20260501223645 | 67 | 349 | 10.0 | 10.0 | 0.00 | 0.00 | 0.00 | 18 | 1019.2 |
| 20260501223144 | 67 | 13 | 4.0 | 11.0 | 0.00 | 0.00 | 0.00 | 17 | 1019.3 |
| 20260501222644 | 67 | 13 | 7.0 | 8.0 | 0.00 | 0.00 | 0.00 | 15 | 1019.4 |
| 20260501222143 | 67 | 68 | 7.0 | 10.0 | 0.00 | 0.00 | 0.00 | 16 | 1019.4 |
| 20260501221643 | 66 | 62 | 8.0 | 14.0 | 0.00 | 0.00 | 0.00 | 18 | 1019.5 |
| 20260501221142 | 66 | 24 | 9.0 | 12.0 | 0.00 | 0.00 | 0.00 | 15 | 1019.6 |
| 20260501220642 | 66 | 11 | 3.0 | 10.0 | 0.00 | 0.00 | 0.00 | 18 | 1019.6 |
| 20260501220138 | 66 | 328 | 7.0 | 10.0 | 0.00 | 0.00 | 0.00 | 14 | 1019.7 |